Time;durP1;ratioP1;P1;durP2;ratioP2;P2;SDS_P1;SDS_P2;PMS_P1;PMS_P2;Temp;Humidity;BMP_temperature;BMP_pressure;BME280_temperature;BME280_humidity;BME280_pressure;Samples;Min_cycle;Max_cycle;Signal;HPM_P1;HPM_P2
2021/07/21 00:02:21;;;;;;;10.05;7.72;;;17.80;99.90;;;;;;5013042;28;20026;-73
2021/07/21 00:04:47;;;;;;;7.72;6.07;;;17.70;99.90;;;;;;5013133;28;20022;-72
2021/07/21 00:07:16;;;;;;;11.65;6.85;;;17.80;99.90;;;;;;5013042;28;20045;-73
2021/07/21 00:09:41;;;;;;;14.68;6.53;;;17.70;99.90;;;;;;5013217;28;20573;-73
2021/07/21 00:14:52;;;;;;;17.00;8.48;;;17.60;99.90;;;;;;5013189;28;20061;-72
2021/07/21 00:17:20;;;;;;;10.50;7.72;;;17.60;99.90;;;;;;5012837;28;20042;-73
2021/07/21 00:22:30;;;;;;;10.02;7.15;;;17.50;99.90;;;;;;5012849;28;20036;-73
2021/07/21 00:24:56;;;;;;;7.72;6.93;;;17.40;99.90;;;;;;5012889;28;20100;-72
2021/07/21 00:27:23;;;;;;;9.85;6.60;;;17.30;99.90;;;;;;5012756;28;20064;-72
2021/07/21 00:29:49;;;;;;;11.82;7.45;;;17.30;99.90;;;;;;5012755;28;20033;-73
2021/07/21 00:32:14;;;;;;;7.00;6.30;;;17.30;99.90;;;;;;5012683;28;20037;-72
2021/07/21 00:34:40;;;;;;;8.02;7.00;;;17.30;99.90;;;;;;5012667;28;20441;-73
2021/07/21 00:37:07;;;;;;;9.07;7.65;;;17.30;99.90;;;;;;5012400;28;20478;-72
2021/07/21 00:39:32;;;;;;;9.20;7.22;;;17.30;99.90;;;;;;5012368;28;20046;-72
2021/07/21 00:41:58;;;;;;;16.40;8.82;;;17.10;99.90;;;;;;5023130;28;20025;-73
2021/07/21 00:44:23;;;;;;;8.18;7.13;;;17.10;99.90;;;;;;5032471;28;20486;-73
2021/07/21 00:46:49;;;;;;;16.80;7.97;;;17.10;99.90;;;;;;5032226;28;20456;-72
2021/07/21 00:49:15;;;;;;;9.27;6.50;;;17.10;99.90;;;;;;5032131;28;20025;-73
2021/07/21 00:51:40;;;;;;;8.23;7.10;;;17.00;99.90;;;;;;5032142;28;20036;-73
2021/07/21 00:54:07;;;;;;;8.32;7.00;;;17.10;99.90;;;;;;5014208;28;20044;-72
2021/07/21 00:56:35;;;;;;;10.93;6.88;;;17.10;99.90;;;;;;5032107;28;20024;-74
2021/07/21 00:59:02;;;;;;;7.68;6.88;;;17.00;99.90;;;;;;5047110;28;20014;-73
2021/07/21 01:01:28;;;;;;;10.70;7.40;;;17.00;99.90;;;;;;5042105;28;20103;-73
2021/07/21 01:03:53;;;;;;;9.32;7.30;;;16.90;99.90;;;;;;5035978;28;20651;-73
2021/07/21 01:06:19;;;;;;;8.63;7.15;;;16.90;99.90;;;;;;5034711;28;20049;-73
2021/07/21 01:08:45;;;;;;;8.20;7.38;;;16.90;99.90;;;;;;5019759;28;20037;-73
2021/07/21 01:11:32;;;;;;;8.77;6.70;;;16.80;99.90;;;;;;5012956;28;20025;-72
2021/07/21 01:14:09;;;;;;;12.02;7.75;;;16.70;99.90;;;;;;5012632;28;20049;-72
2021/07/21 01:16:40;;;;;;;10.93;7.30;;;16.70;99.90;;;;;;4994496;28;20493;-72
2021/07/21 01:19:17;;;;;;;8.18;7.30;;;16.70;99.90;;;;;;5012003;28;20029;-73
2021/07/21 01:21:55;;;;;;;9.13;8.23;;;16.70;99.90;;;;;;5012320;28;20486;-73
2021/07/21 01:24:26;;;;;;;7.95;7.15;;;16.70;99.90;;;;;;5012991;28;20043;-72
2021/07/21 01:27:22;;;;;;;10.32;8.05;;;16.70;99.90;;;;;;4994602;28;20018;-73
2021/07/21 01:29:52;;;;;;;9.65;7.38;;;16.70;99.90;;;;;;5011887;28;20030;-72
2021/07/21 01:32:21;;;;;;;10.38;7.60;;;16.60;99.90;;;;;;5012027;28;20489;-73
2021/07/21 01:34:50;;;;;;;7.55;6.63;;;16.60;99.90;;;;;;5012089;28;20503;-72
2021/07/21 01:37:16;;;;;;;8.77;7.65;;;16.50;99.90;;;;;;5011915;28;20105;-72
2021/07/21 01:39:46;;;;;;;9.60;7.38;;;16.50;99.90;;;;;;5011895;28;20022;-72
2021/07/21 01:42:16;;;;;;;9.35;8.10;;;16.50;99.90;;;;;;5023344;28;20043;-72
2021/07/21 01:44:47;;;;;;;12.37;7.80;;;16.50;99.90;;;;;;5031632;28;20022;-73
2021/07/21 01:47:15;;;;;;;8.43;7.47;;;16.40;99.90;;;;;;5031693;28;20026;-73
2021/07/21 01:49:41;;;;;;;7.88;7.07;;;16.50;99.90;;;;;;5031558;28;20021;-72
2021/07/21 01:52:13;;;;;;;10.38;7.03;;;16.50;99.90;;;;;;5031647;28;20115;-72
2021/07/21 01:54:41;;;;;;;11.35;7.93;;;16.50;99.90;;;;;;5031528;28;20025;-72
2021/07/21 01:57:09;;;;;;;10.95;7.80;;;16.40;99.90;;;;;;5031554;28;20389;-72
2021/07/21 01:59:35;;;;;;;9.20;6.53;;;16.40;99.90;;;;;;5031358;28;20175;-72
2021/07/21 02:02:02;;;;;;;9.38;6.93;;;16.40;99.90;;;;;;5031487;28;20033;-72
2021/07/21 02:04:29;;;;;;;9.60;7.35;;;16.30;99.90;;;;;;5031541;28;20033;-72
2021/07/21 02:06:56;;;;;;;8.15;7.18;;;16.40;99.90;;;;;;5031127;28;20029;-74
2021/07/21 02:09:24;;;;;;;7.63;6.82;;;16.30;99.90;;;;;;4995377;28;20026;-72
2021/07/21 02:11:50;;;;;;;10.18;7.70;;;16.30;99.90;;;;;;4994179;28;20022;-72
2021/07/21 02:14:17;;;;;;;9.70;7.88;;;16.30;99.90;;;;;;5011696;28;20037;-73
2021/07/21 02:16:44;;;;;;;10.27;7.28;;;16.20;99.90;;;;;;5011464;28;20022;-72
2021/07/21 02:19:10;;;;;;;12.05;8.10;;;16.20;99.90;;;;;;5011399;28;20026;-72
2021/07/21 02:21:38;;;;;;;9.80;7.43;;;16.20;99.90;;;;;;5011533;28;20025;-73
2021/07/21 02:24:06;;;;;;;12.57;8.13;;;16.10;99.90;;;;;;4993969;28;20061;-73
2021/07/21 02:26:36;;;;;;;8.73;7.13;;;16.10;99.90;;;;;;5014360;28;20041;-72
2021/07/21 02:29:03;;;;;;;9.05;7.32;;;16.00;99.90;;;;;;5016683;28;20075;-72
2021/07/21 02:31:33;;;;;;;9.88;7.43;;;16.00;99.90;;;;;;5015048;28;20093;-72
2021/07/21 02:34:03;;;;;;;8.45;7.55;;;16.00;99.90;;;;;;5013028;28;20152;-72
2021/07/21 02:36:30;;;;;;;9.57;7.07;;;16.00;99.90;;;;;;4997736;28;20116;-73
2021/07/21 02:38:56;;;;;;;13.98;8.52;;;16.00;99.90;;;;;;5015528;28;20022;-72
2021/07/21 02:41:22;;;;;;;10.13;7.40;;;15.90;99.90;;;;;;5022930;28;20045;-72
2021/07/21 02:43:48;;;;;;;7.18;6.47;;;15.90;99.90;;;;;;5022139;28;20084;-72
2021/07/21 02:46:14;;;;;;;10.77;7.32;;;15.90;99.90;;;;;;5014737;28;20108;-72
2021/07/21 02:48:46;;;;;;;10.07;7.65;;;15.80;99.90;;;;;;5014618;28;20037;-72
2021/07/21 02:51:26;;;;;;;11.55;7.25;;;15.80;99.90;;;;;;5014945;28;20490;-72
2021/07/21 02:54:01;;;;;;;12.48;8.32;;;15.80;99.90;;;;;;4996818;28;20026;-71
2021/07/21 02:56:33;;;;;;;9.90;7.10;;;15.80;99.90;;;;;;4996899;28;20030;-72
2021/07/21 02:59:03;;;;;;;15.82;8.63;;;15.90;99.90;;;;;;5014283;28;20096;-73
2021/07/21 03:01:32;;;;;;;8.40;7.47;;;15.80;99.90;;;;;;4996957;28;20125;-72
2021/07/21 03:03:59;;;;;;;7.75;7.00;;;15.80;99.90;;;;;;4997002;28;20034;-72
2021/07/21 03:06:27;;;;;;;10.30;8.48;;;15.70;99.90;;;;;;5014224;28;20109;-72
2021/07/21 03:08:53;;;;;;;11.43;7.60;;;15.70;99.90;;;;;;5013921;28;20032;-72
2021/07/21 03:11:22;;;;;;;10.05;8.45;;;15.80;99.90;;;;;;5014619;28;20026;-73
2021/07/21 03:13:58;;;;;;;11.13;7.82;;;15.80;99.90;;;;;;5013953;28;20030;-72
2021/07/21 03:16:31;;;;;;;12.88;8.55;;;15.70;99.90;;;;;;5014183;28;20057;-73
2021/07/21 03:19:00;;;;;;;12.70;8.07;;;15.70;99.90;;;;;;4998889;28;20029;-72
2021/07/21 03:21:27;;;;;;;11.88;7.82;;;15.60;99.90;;;;;;5013976;28;20124;-73
2021/07/21 03:23:54;;;;;;;12.20;7.50;;;15.60;99.90;;;;;;4996144;28;20508;-72
2021/07/21 03:26:20;;;;;;;8.55;7.20;;;15.60;99.90;;;;;;5014016;28;20469;-72
2021/07/21 03:28:49;;;;;;;11.32;8.07;;;15.50;99.90;;;;;;5013913;28;20101;-73
2021/07/21 03:31:16;;;;;;;10.65;8.45;;;15.40;99.90;;;;;;5013769;28;20121;-72
2021/07/21 03:33:44;;;;;;;11.43;8.05;;;15.50;99.90;;;;;;5014122;28;20083;-72
2021/07/21 03:36:11;;;;;;;10.20;7.63;;;15.40;99.90;;;;;;5014036;28;20029;-72
2021/07/21 03:38:38;;;;;;;11.80;7.93;;;15.30;99.90;;;;;;5013991;28;20079;-72
2021/07/21 03:41:05;;;;;;;11.18;8.20;;;15.30;99.90;;;;;;5021759;28;20026;-73
2021/07/21 03:43:31;;;;;;;10.95;8.18;;;15.30;99.90;;;;;;5028913;28;20022;-72
2021/07/21 03:46:00;;;;;;;13.55;8.45;;;15.30;99.90;;;;;;5033373;28;20029;-71
2021/07/21 03:48:27;;;;;;;11.85;9.40;;;15.40;99.90;;;;;;5033369;28;20018;-72
2021/07/21 03:50:58;;;;;;;11.88;8.02;;;15.30;99.90;;;;;;5033107;28;20108;-72
2021/07/21 03:53:24;;;;;;;;;;;15.20;99.90;;;;;;5054296;28;20068;-72
2021/07/21 03:55:50;;;;;;;12.57;8.73;;;15.20;99.90;;;;;;5016635;28;19911;-72
2021/07/21 03:58:16;;;;;;;12.35;8.32;;;15.30;99.90;;;;;;5033344;28;20053;-72
2021/07/21 04:00:43;;;;;;;11.13;9.00;;;15.30;99.90;;;;;;5051927;22;20232;-79
2021/07/21 04:03:10;;;;;;;11.57;8.68;;;15.30;99.90;;;;;;5006607;28;20064;-80
2021/07/21 04:05:36;;;;;;;9.48;8.50;;;15.30;99.90;;;;;;5023646;28;20096;-80
2021/07/21 04:08:02;;;;;;;11.77;8.70;;;15.30;99.90;;;;;;5023194;28;20022;-82
2021/07/21 04:10:29;;;;;;;13.85;8.05;;;15.40;99.90;;;;;;5003861;28;20245;-80
2021/07/21 04:13:02;;;;;;;11.27;8.18;;;15.40;99.90;;;;;;5021632;28;20026;-79
2021/07/21 04:15:28;;;;;;;12.95;9.95;;;15.40;99.90;;;;;;5021585;28;20393;-81
2021/07/21 04:17:56;;;;;;;12.98;7.85;;;15.50;99.90;;;;;;5021236;28;20033;-79
2021/07/21 04:20:23;;;;;;;12.15;9.05;;;15.60;99.90;;;;;;5004075;28;20030;-80
2021/07/21 04:22:50;;;;;;;12.23;8.77;;;15.60;99.90;;;;;;5021572;28;20081;-81
2021/07/21 04:25:16;;;;;;;13.93;7.88;;;15.60;99.90;;;;;;5021842;28;20385;-80
2021/07/21 04:27:44;;;;;;;14.20;8.68;;;15.60;99.90;;;;;;5021667;28;20478;-79
2021/07/21 04:30:10;;;;;;;9.82;7.85;;;15.60;99.90;;;;;;5023550;28;20025;-83
2021/07/21 04:32:37;;;;;;;13.20;8.20;;;15.80;99.90;;;;;;5022727;28;20021;-81
2021/07/21 04:35:06;;;;;;;13.27;7.97;;;16.00;99.90;;;;;;5021382;28;20045;-80
2021/07/21 04:37:35;;;;;;;13.88;8.48;;;16.00;99.90;;;;;;5020139;28;20026;-81
2021/07/21 04:40:02;;;;;;;8.90;7.03;;;16.20;99.90;;;;;;5008071;28;20318;-78
2021/07/21 04:42:30;;;;;;;12.93;7.55;;;16.30;99.90;;;;;;5030355;28;20010;-81
2021/07/21 04:44:56;;;;;;;9.15;8.18;;;16.40;99.90;;;;;;5022753;28;20057;-81
2021/07/21 04:47:23;;;;;;;8.73;7.80;;;16.40;99.90;;;;;;5021717;28;20022;-81
2021/07/21 04:49:51;;;;;;;9.75;8.02;;;16.50;99.90;;;;;;5004274;28;20033;-79
2021/07/21 04:52:18;;;;;;;10.07;7.68;;;16.40;99.90;;;;;;5024198;28;20018;-79
2021/07/21 04:54:44;;;;;;;8.93;7.38;;;16.60;99.90;;;;;;5021325;28;20469;-81
2021/07/21 04:57:10;;;;;;;8.75;7.80;;;17.00;99.90;;;;;;5020915;28;20073;-81
2021/07/21 04:59:37;;;;;;;11.15;8.10;;;17.80;99.90;;;;;;5025284;28;20167;-80
2021/07/21 05:02:06;;;;;;;9.10;7.60;;;18.50;99.90;;;;;;5024463;28;20017;-80
2021/07/21 05:04:35;;;;;;;10.00;7.32;;;18.80;99.90;;;;;;5024094;28;20060;-80
2021/07/21 05:07:01;;;;;;;11.93;8.10;;;18.80;99.90;;;;;;5022844;28;20014;-82
2021/07/21 05:09:27;;;;;;;9.88;7.40;;;19.40;99.90;;;;;;5023685;28;20028;-81
2021/07/21 05:11:53;;;;;;;8.23;7.32;;;19.80;99.90;;;;;;5023539;28;20101;-79
2021/07/21 05:14:18;;;;;;;12.25;7.80;;;20.30;99.90;;;;;;5027767;28;20494;-80
2021/07/21 05:16:44;;;;;;;12.32;7.97;;;20.50;99.90;;;;;;5026354;28;20048;-79
2021/07/21 05:19:11;;;;;;;8.50;6.72;;;20.50;99.90;;;;;;5033360;28;20010;-79
2021/07/21 05:21:37;;;;;;;9.38;7.35;;;20.80;99.90;;;;;;5035590;28;20021;-80
2021/07/21 05:24:03;;;;;;;11.80;7.20;;;20.50;99.90;;;;;;5028121;28;20057;-81
2021/07/21 05:26:29;;;;;;;9.68;7.05;;;20.70;99.90;;;;;;5006892;28;20041;-81
2021/07/21 05:28:54;;;;;;;9.60;6.68;;;20.60;99.90;;;;;;5024811;28;20030;-79
2021/07/21 05:31:20;;;;;;;9.38;7.57;;;21.20;99.90;;;;;;5025875;28;20025;-82
2021/07/21 05:33:46;;;;;;;8.60;7.28;;;22.50;99.90;;;;;;5025332;28;20045;-80
2021/07/21 05:36:12;;;;;;;11.40;7.10;;;22.50;99.90;;;;;;5025764;28;20022;-82
2021/07/21 05:38:38;;;;;;;12.20;6.85;;;22.80;99.90;;;;;;5027269;28;20493;-82
2021/07/21 05:41:05;;;;;;;7.57;6.70;;;23.40;99.90;;;;;;5010446;28;20037;-81
2021/07/21 05:43:32;;;;;;;10.23;7.45;;;22.60;99.90;;;;;;5010006;28;20032;-80
2021/07/21 05:46:00;;;;;;;8.93;6.68;;;21.70;99.90;;;;;;5029418;28;20065;-81
2021/07/21 05:48:26;;;;;;;8.65;7.38;;;22.00;99.90;;;;;;5014340;28;20037;-79
2021/07/21 05:50:51;;;;;;;8.30;7.10;;;22.20;99.90;;;;;;5023703;28;20034;-79
2021/07/21 05:53:17;;;;;;;9.13;7.18;;;23.00;99.60;;;;;;5032093;28;20026;-80
2021/07/21 05:55:43;;;;;;;8.80;7.25;;;22.50;99.60;;;;;;5026839;28;20032;-81
2021/07/21 05:58:10;;;;;;;8.57;7.10;;;21.90;99.90;;;;;;5008028;28;20041;-80
2021/07/21 06:00:36;;;;;;;8.73;7.85;;;22.10;99.90;;;;;;5025490;28;20033;-81
2021/07/21 06:03:01;;;;;;;10.18;6.90;;;21.90;99.90;;;;;;5026578;28;20022;-79
2021/07/21 06:05:27;;;;;;;10.70;7.10;;;22.60;99.90;;;;;;5007900;28;20028;-79
2021/07/21 06:07:53;;;;;;;7.90;7.10;;;23.00;99.90;;;;;;5032981;28;20018;-78
2021/07/21 06:10:18;;;;;;;8.23;7.45;;;23.30;99.30;;;;;;5034360;28;20027;-78
2021/07/21 06:12:44;;;;;;;8.00;7.20;;;23.00;99.40;;;;;;5034531;28;20385;-81
2021/07/21 06:15:10;;;;;;;10.88;8.63;;;22.30;99.90;;;;;;5030383;28;20457;-80
2021/07/21 06:17:36;;;;;;;10.82;8.00;;;22.70;99.60;;;;;;5034350;28;20018;-79
2021/07/21 06:20:05;;;;;;;8.95;7.60;;;22.90;99.20;;;;;;5049439;28;20571;-79
2021/07/21 06:22:33;;;;;;;7.90;7.10;;;22.10;99.90;;;;;;5035588;28;20017;-79
2021/07/21 06:25:00;;;;;;;10.65;7.68;;;22.70;99.90;;;;;;5054293;28;20048;-78
2021/07/21 06:27:25;;;;;;;8.32;7.22;;;22.30;99.90;;;;;;5038732;28;20029;-74
2021/07/21 06:29:51;;;;;;;11.02;8.07;;;21.30;99.90;;;;;;5035309;28;20064;-75
2021/07/21 06:32:16;;;;;;;13.43;8.15;;;21.50;99.90;;;;;;5035114;28;20472;-75
2021/07/21 06:34:42;;;;;;;18.25;7.80;;;21.20;99.90;;;;;;5035436;28;20029;-76
2021/07/21 06:37:08;;;;;;;12.15;8.30;;;20.80;99.90;;;;;;5035207;28;20025;-76
2021/07/21 06:39:34;;;;;;;10.30;7.75;;;20.30;99.90;;;;;;5014952;28;20057;-74
2021/07/21 06:42:00;;;;;;;9.73;7.63;;;19.90;99.90;;;;;;5014010;28;20496;-76
2021/07/21 06:44:25;;;;;;;9.88;7.80;;;19.80;99.90;;;;;;5017934;28;20077;-75
2021/07/21 06:46:51;;;;;;;12.27;8.38;;;20.10;99.90;;;;;;5035680;28;20389;-76
2021/07/21 06:49:17;;;;;;;8.13;7.32;;;20.40;99.90;;;;;;5035291;28;20033;-75
2021/07/21 06:51:42;;;;;;;8.27;7.43;;;20.50;99.90;;;;;;5037688;28;20029;-75
2021/07/21 06:54:08;;;;;;;8.45;7.50;;;20.50;99.90;;;;;;5037489;28;20044;-74
2021/07/21 06:56:33;;;;;;;11.50;7.72;;;20.50;99.90;;;;;;5035179;28;20096;-74
2021/07/21 06:59:01;;;;;;;8.85;7.15;;;20.30;99.90;;;;;;5035372;28;20030;-74
2021/07/21 07:01:27;;;;;;;11.48;7.97;;;20.50;99.90;;;;;;5035167;28;20040;-76
2021/07/21 07:03:53;;;;;;;8.18;7.32;;;20.60;99.90;;;;;;5035881;28;20097;-75
2021/07/21 07:06:18;;;;;;;8.00;7.13;;;20.60;99.90;;;;;;5034890;28;20025;-74
2021/07/21 07:08:44;;;;;;;31.17;10.27;;;20.60;99.90;;;;;;5003953;28;20026;-75
2021/07/21 07:11:10;;;;;;;75.10;15.75;;;20.50;99.90;;;;;;5015661;28;20417;-74
2021/07/21 07:13:36;;;;;;;14.73;7.85;;;20.70;99.90;;;;;;5014796;28;20022;-76
2021/07/21 07:16:03;;;;;;;10.60;7.15;;;20.70;99.90;;;;;;5015196;28;20034;-76
2021/07/21 07:18:28;;;;;;;11.95;7.97;;;20.50;99.90;;;;;;5016483;28;20022;-75
2021/07/21 07:20:56;;;;;;;8.55;7.65;;;20.30;99.90;;;;;;5016250;28;20080;-76
2021/07/21 07:23:22;;;;;;;10.60;7.53;;;20.70;99.90;;;;;;5017518;28;20042;-74
2021/07/21 07:25:47;;;;;;;14.80;7.88;;;20.70;99.90;;;;;;5016872;28;20029;-75
2021/07/21 07:28:13;;;;;;;15.13;7.60;;;20.90;99.90;;;;;;4998404;28;20037;-74
2021/07/21 07:30:39;;;;;;;8.82;7.40;;;20.90;99.90;;;;;;5015229;28;20390;-74
2021/07/21 07:33:04;;;;;;;8.38;7.50;;;21.00;99.90;;;;;;5016347;28;20501;-76
2021/07/21 07:35:30;;;;;;;8.93;8.00;;;21.00;99.90;;;;;;5015279;28;20033;-75
2021/07/21 07:37:56;;;;;;;9.77;8.70;;;21.00;99.90;;;;;;5014968;28;20036;-75
2021/07/21 07:40:21;;;;;;;12.25;8.32;;;20.90;99.90;;;;;;5014275;28;20557;-74
2021/07/21 07:42:47;;;;;;;12.05;8.90;;;21.00;99.90;;;;;;5014310;28;20360;-76
2021/07/21 07:45:14;;;;;;;10.55;7.18;;;21.10;99.90;;;;;;5014385;28;20036;-75
2021/07/21 07:47:39;;;;;;;10.10;7.35;;;21.00;99.90;;;;;;5014396;28;20021;-75
2021/07/21 07:50:08;;;;;;;12.73;8.02;;;21.00;99.90;;;;;;5014053;28;20044;-74
2021/07/21 07:52:35;;;;;;;9.70;8.00;;;21.10;99.90;;;;;;5014750;28;20033;-75
2021/07/21 07:55:02;;;;;;;10.20;7.25;;;21.40;99.90;;;;;;5014811;28;20104;-75
2021/07/21 07:57:27;;;;;;;9.20;8.32;;;21.50;99.90;;;;;;4997473;28;20137;-75
2021/07/21 07:59:53;;;;;;;14.77;7.72;;;21.50;99.90;;;;;;5013052;28;20529;-74
2021/07/21 08:02:18;;;;;;;9.98;8.98;;;21.60;99.90;;;;;;5014600;28;20026;-76
2021/07/21 08:04:44;;;;;;;12.95;8.65;;;21.50;99.90;;;;;;5014186;28;20026;-75
2021/07/21 08:07:10;;;;;;;12.70;8.27;;;21.60;99.90;;;;;;5014003;28;20105;-76
2021/07/21 08:09:36;;;;;;;10.77;8.05;;;21.00;99.90;;;;;;5013678;28;20033;-76
2021/07/21 08:12:03;;;;;;;10.05;7.63;;;21.10;99.90;;;;;;5000371;28;20026;-75
2021/07/21 08:14:28;;;;;;;9.68;8.68;;;21.50;99.90;;;;;;5018840;28;20049;-74
2021/07/21 08:16:54;;;;;;;13.55;9.20;;;21.80;99.90;;;;;;5016921;28;20214;-76
2021/07/21 08:19:22;;;;;;;9.50;7.75;;;21.80;99.90;;;;;;5016165;28;20033;-75
2021/07/21 08:21:48;;;;;;;9.20;7.88;;;21.80;99.90;;;;;;4997503;28;20022;-76
2021/07/21 08:24:14;;;;;;;11.68;8.50;;;21.80;99.90;;;;;;5015527;28;20144;-75
2021/07/21 08:26:40;;;;;;;10.57;8.15;;;21.90;99.90;;;;;;4997636;28;20029;-74
2021/07/21 08:29:08;;;;;;;9.52;8.20;;;22.20;99.90;;;;;;4997590;28;20470;-75
2021/07/21 08:31:34;;;;;;;9.85;7.35;;;22.40;99.90;;;;;;5014188;28;20025;-75
2021/07/21 08:34:01;;;;;;;11.23;8.18;;;22.60;99.90;;;;;;5013651;28;20040;-76
2021/07/21 08:36:30;;;;;;;11.25;8.30;;;22.50;99.90;;;;;;5013987;28;20103;-75
2021/07/21 08:38:56;;;;;;;14.90;8.43;;;22.60;99.90;;;;;;5014579;28;20481;-75
2021/07/21 08:41:25;;;;;;;8.38;6.85;;;22.50;99.90;;;;;;5014112;28;20087;-76
2021/07/21 08:43:51;;;;;;;8.85;7.95;;;22.60;99.90;;;;;;5014163;28;20034;-75
2021/07/21 08:46:17;;;;;;;10.73;7.80;;;22.70;99.90;;;;;;4996494;28;20079;-75
2021/07/21 08:48:43;;;;;;;9.35;7.95;;;22.80;99.90;;;;;;5013891;28;20026;-76
2021/07/21 08:51:10;;;;;;;9.82;7.32;;;23.10;99.90;;;;;;5014108;28;20041;-75
2021/07/21 08:53:37;;;;;;;15.35;8.02;;;23.00;99.90;;;;;;5032732;28;20010;-75
2021/07/21 08:56:03;;;;;;;9.00;7.25;;;23.30;99.90;;;;;;5016863;28;20080;-74
2021/07/21 08:58:29;;;;;;;10.50;6.95;;;23.20;99.90;;;;;;5014186;28;20110;-75
2021/07/21 09:00:55;;;;;;;11.95;8.43;;;23.20;99.90;;;;;;5016298;28;20065;-74
2021/07/21 09:03:21;;;;;;;10.82;7.35;;;23.10;99.90;;;;;;5015679;28;20029;-74
2021/07/21 09:05:49;;;;;;;8.45;7.30;;;22.90;99.90;;;;;;5015300;28;20137;-75
2021/07/21 09:08:15;;;;;;;7.90;7.10;;;22.80;99.90;;;;;;5014399;28;20060;-75
2021/07/21 09:10:43;;;;;;;9.38;7.80;;;23.10;99.90;;;;;;5013911;28;20026;-75
2021/07/21 09:13:09;;;;;;;9.82;8.20;;;23.40;99.90;;;;;;4995670;28;20148;-75
2021/07/21 09:15:35;;;;;;;13.00;7.72;;;23.20;99.90;;;;;;5017700;28;20026;-74
2021/07/21 09:18:07;;;;;;;7.78;6.97;;;23.20;99.90;;;;;;4998352;28;20034;-74
2021/07/21 09:20:41;;;;;;;11.07;8.00;;;23.60;99.90;;;;;;4995682;28;20488;-74
2021/07/21 09:23:08;;;;;;;9.43;7.00;;;23.70;99.90;;;;;;5013640;28;20041;-75
2021/07/21 09:25:36;;;;;;;9.55;7.18;;;24.00;99.90;;;;;;5013969;28;20025;-75
2021/07/21 09:28:06;;;;;;;8.45;7.55;;;23.80;99.90;;;;;;5013597;28;20025;-75
2021/07/21 09:30:38;;;;;;;10.88;7.50;;;23.70;99.90;;;;;;5012360;28;20394;-75
2021/07/21 09:33:11;;;;;;;10.05;7.25;;;23.90;99.20;;;;;;5013444;28;20038;-74
2021/07/21 09:35:48;;;;;;;12.00;7.20;;;24.00;98.60;;;;;;4996028;28;20482;-75
2021/07/21 09:38:19;;;;;;;9.77;6.28;;;24.20;98.70;;;;;;4995577;28;20026;-74
2021/07/21 09:40:48;;;;;;;8.02;7.10;;;24.10;99.40;;;;;;5012849;28;20374;-75
2021/07/21 09:43:17;;;;;;;8.10;7.28;;;24.30;98.70;;;;;;5013462;28;20037;-75
2021/07/21 09:45:43;;;;;;;8.32;6.32;;;23.90;98.50;;;;;;4999311;28;20230;-75
2021/07/21 09:48:10;;;;;;;7.55;6.10;;;23.80;99.00;;;;;;5017656;28;20030;-76
2021/07/21 09:50:39;;;;;;;6.97;6.25;;;24.10;98.50;;;;;;5016591;28;20033;-75
2021/07/21 09:53:12;;;;;;;7.70;6.53;;;23.90;98.40;;;;;;5017276;28;20397;-74
2021/07/21 09:55:39;;;;;;;7.25;6.55;;;24.20;97.50;;;;;;5020764;28;20028;-74
2021/07/21 09:58:12;;;;;;;10.75;6.63;;;24.50;97.10;;;;;;5004021;28;20034;-74
2021/07/21 10:00:38;;;;;;;9.88;6.70;;;24.50;96.70;;;;;;5050680;22;20045;-76
2021/07/21 10:03:15;;;;;;;8.77;6.47;;;24.30;97.50;;;;;;5035489;28;20028;-76
2021/07/21 10:06:01;;;;;;;7.45;6.13;;;24.30;97.80;;;;;;5034969;28;20100;-76
2021/07/21 10:08:48;;;;;;;7.57;6.82;;;24.20;97.80;;;;;;5017659;28;20389;-76
2021/07/21 10:11:34;;;;;;;7.47;6.78;;;24.00;97.10;;;;;;5017483;28;20049;-76
2021/07/21 10:14:03;;;;;;;8.10;6.78;;;23.80;98.00;;;;;;5035153;28;20022;-76
2021/07/21 10:16:50;;;;;;;15.75;6.72;;;23.70;97.60;;;;;;5035176;28;20099;-75
2021/07/21 10:19:27;;;;;;;7.88;6.80;;;23.90;97.50;;;;;;5034823;28;20045;-76
2021/07/21 10:22:00;;;;;;;7.78;7.07;;;24.40;96.80;;;;;;5035054;28;20168;-75
2021/07/21 10:24:34;;;;;;;6.60;5.82;;;24.70;96.50;;;;;;5034687;28;20018;-75
2021/07/21 10:27:02;;;;;;;7.85;6.25;;;24.90;96.00;;;;;;5035021;28;20376;-76
2021/07/21 10:29:27;;;;;;;9.02;6.00;;;24.70;95.90;;;;;;5035088;28;20017;-76
2021/07/21 10:31:54;;;;;;;6.82;6.10;;;24.50;96.10;;;;;;5017251;28;20106;-75
2021/07/21 10:34:23;;;;;;;7.82;6.70;;;24.30;96.40;;;;;;5034739;28;20071;-76
2021/07/21 10:36:49;;;;;;;8.50;6.20;;;24.70;95.80;;;;;;5034534;28;20021;-76
2021/07/21 10:39:17;;;;;;;8.50;7.38;;;25.00;95.30;;;;;;5034632;28;20104;-76
2021/07/21 10:41:45;;;;;;;7.00;5.72;;;25.20;94.40;;;;;;5034350;28;20409;-76
2021/07/21 10:44:13;;;;;;;6.45;5.82;;;25.20;94.50;;;;;;5016565;28;20037;-76
2021/07/21 10:46:47;;;;;;;9.75;6.13;;;25.40;93.90;;;;;;5016760;28;20032;-76
2021/07/21 10:49:37;;;;;;;7.95;6.47;;;25.30;94.20;;;;;;5016895;28;20022;-76
2021/07/21 10:54:45;;;;;;;7.35;6.65;;;25.20;93.70;;;;;;5034770;28;20029;-76
2021/07/21 11:00:30;;;;;;;7.40;6.55;;;24.90;94.10;;;;;;5034203;28;20495;-77
2021/07/21 11:03:20;;;;;;;7.20;6.43;;;25.20;93.60;;;;;;5034348;28;20029;-75
2021/07/21 11:05:55;;;;;;;8.05;7.28;;;25.60;92.90;;;;;;5028009;28;20068;-76
2021/07/21 11:08:22;;;;;;;8.40;6.63;;;25.80;92.50;;;;;;5034339;28;20033;-76
2021/07/21 11:10:50;;;;;;;7.95;6.70;;;25.40;92.70;;;;;;5034596;28;20030;-75
2021/07/21 11:13:28;;;;;;;15.00;7.13;;;25.50;93.20;;;;;;5034264;28;20487;-75
2021/07/21 11:15:54;;;;;;;10.95;6.85;;;25.80;92.30;;;;;;5034021;28;20028;-76
2021/07/21 11:18:22;;;;;;;7.07;6.38;;;26.10;92.10;;;;;;5033864;28;20667;-76
2021/07/21 11:21:03;;;;;;;6.60;5.95;;;26.20;92.20;;;;;;5016149;28;20052;-75
2021/07/21 11:23:48;;;;;;;7.85;6.75;;;26.20;92.00;;;;;;5033923;28;20058;-76
2021/07/21 11:26:32;;;;;;;8.35;6.90;;;25.90;91.50;;;;;;5033982;28;20030;-75
2021/07/21 11:29:24;;;;;;;7.97;7.13;;;26.40;91.50;;;;;;5033648;28;20436;-76
2021/07/21 11:31:49;;;;;;;8.63;7.03;;;26.30;91.20;;;;;;5027844;28;20065;-77
2021/07/21 11:34:35;;;;;;;8.20;7.45;;;25.80;91.30;;;;;;5033485;28;20029;-76
2021/07/21 11:37:08;;;;;;;8.13;7.32;;;25.80;91.60;;;;;;5016167;28;20037;-76
2021/07/21 11:39:50;;;;;;;10.15;7.40;;;26.00;91.40;;;;;;5034026;28;20029;-75
2021/07/21 11:42:27;;;;;;;7.65;6.93;;;26.20;91.30;;;;;;5031920;28;20104;-75
2021/07/21 11:45:13;;;;;;;7.03;6.32;;;26.50;90.70;;;;;;5013838;28;20456;-75
2021/07/21 11:47:40;;;;;;;9.90;7.95;;;26.60;91.00;;;;;;5018345;28;20313;-75
2021/07/21 11:50:20;;;;;;;7.70;6.90;;;26.50;90.90;;;;;;5019007;28;20080;-76
2021/07/21 11:53:04;;;;;;;9.88;7.28;;;26.40;90.80;;;;;;5036687;28;20402;-76
2021/07/21 11:55:32;;;;;;;9.15;7.05;;;26.50;90.90;;;;;;5037130;28;20021;-75
2021/07/21 11:57:58;;;;;;;11.90;7.30;;;26.50;90.90;;;;;;5037012;28;20010;-75
2021/07/21 12:00:25;;;;;;;9.43;7.03;;;26.40;91.10;;;;;;5013833;28;20037;-75
2021/07/21 12:03:01;;;;;;;8.20;7.30;;;26.40;90.60;;;;;;4995651;28;20032;-76
2021/07/21 12:05:27;;;;;;;9.50;7.93;;;26.50;91.00;;;;;;5013451;28;20021;-76
2021/07/21 12:07:58;;;;;;;10.05;7.25;;;26.60;91.30;;;;;;5013257;28;20526;-74
2021/07/21 12:10:23;;;;;;;7.95;6.70;;;27.40;90.90;;;;;;5013047;28;20109;-76
2021/07/21 12:12:49;;;;;;;8.98;6.38;;;27.20;90.90;;;;;;5013440;28;20114;-76
2021/07/21 12:15:16;;;;;;;7.82;7.10;;;27.10;91.00;;;;;;4995627;28;20092;-76
2021/07/21 12:17:42;;;;;;;8.60;7.22;;;26.50;91.60;;;;;;5013274;28;20056;-76
2021/07/21 12:20:15;;;;;;;11.05;7.20;;;26.00;91.70;;;;;;5013103;28;20061;-76
2021/07/21 12:22:45;;;;;;;8.73;7.82;;;26.10;92.10;;;;;;5013213;28;20096;-75
2021/07/21 12:25:14;;;;;;;7.97;7.22;;;26.50;90.90;;;;;;5013028;28;20026;-76
2021/07/21 12:27:52;;;;;;;8.35;7.55;;;26.90;90.60;;;;;;5013282;28;20026;-75
2021/07/21 12:30:19;;;;;;;9.43;7.15;;;26.80;91.00;;;;;;5013071;28;20053;-75
2021/07/21 12:32:47;;;;;;;9.05;6.40;;;26.90;91.60;;;;;;5012995;28;20030;-76
2021/07/21 12:35:14;;;;;;;8.85;7.03;;;27.00;91.40;;;;;;4994940;28;20025;-76
2021/07/21 12:37:46;;;;;;;7.40;6.55;;;26.90;91.40;;;;;;5012703;28;20080;-75
2021/07/21 12:40:20;;;;;;;7.97;7.03;;;26.90;91.20;;;;;;5012267;28;20030;-76
2021/07/21 12:42:47;;;;;;;7.57;6.70;;;26.90;91.50;;;;;;5012601;28;20064;-76
2021/07/21 12:45:21;;;;;;;8.00;7.18;;;26.90;91.20;;;;;;5027658;28;20025;-77
2021/07/21 12:47:52;;;;;;;9.32;7.00;;;27.00;90.70;;;;;;5012926;28;20104;-75
2021/07/21 12:50:20;;;;;;;;;;;26.60;91.10;;;;;;5013003;28;20393;-76
2021/07/21 12:52:52;;;;;;;8.27;6.72;;;26.40;91.20;;;;;;5012677;28;19906;-75
2021/07/21 12:55:31;;;;;;;7.50;6.40;;;26.70;90.70;;;;;;5012460;28;20033;-75
2021/07/21 12:58:04;;;;;;;9.15;8.07;;;27.00;90.50;;;;;;5012737;28;20029;-75
2021/07/21 13:00:31;;;;;;;8.43;6.53;;;27.10;90.40;;;;;;5012131;28;20030;-76
2021/07/21 13:02:59;;;;;;;9.65;7.40;;;27.20;90.40;;;;;;5027468;28;20077;-75